Time;durP1;ratioP1;P1;durP2;ratioP2;P2;SDS_P1;SDS_P2;PMS_P1;PMS_P2;Temp;Humidity;BMP_temperature;BMP_pressure;BME280_temperature;BME280_humidity;BME280_pressure;Samples;Min_cycle;Max_cycle;Signal;HPM_P1;HPM_P2
2021/07/12 00:02:18;;;;;;;14.10;12.77;;;17.70;99.90;;;;;;4783749;29;20062;-74
2021/07/12 00:04:44;;;;;;;13.40;11.82;;;17.70;99.90;;;;;;4770970;29;20055;-74
2021/07/12 00:07:11;;;;;;;12.68;11.48;;;17.70;99.90;;;;;;4770279;29;20047;-80
2021/07/12 00:09:37;;;;;;;11.70;10.60;;;17.70;99.90;;;;;;4785308;29;20067;-80
2021/07/12 00:12:04;;;;;;;11.07;9.70;;;17.70;99.90;;;;;;4786773;29;20059;-80
2021/07/12 00:14:31;;;;;;;12.05;10.75;;;17.60;99.90;;;;;;4773655;29;20050;-81
2021/07/12 00:16:57;;;;;;;10.73;9.82;;;17.60;99.90;;;;;;4804252;29;20507;-81
2021/07/12 00:19:23;;;;;;;11.93;10.73;;;17.60;99.90;;;;;;4783647;29;20046;-80
2021/07/12 00:21:50;;;;;;;12.10;10.95;;;17.60;99.90;;;;;;4768860;29;20050;-80
2021/07/12 00:24:19;;;;;;;11.77;10.68;;;17.60;99.90;;;;;;4781933;29;20066;-80
2021/07/12 00:26:47;;;;;;;11.63;10.52;;;17.60;99.90;;;;;;4789678;29;20043;-80
2021/07/12 00:29:14;;;;;;;14.02;12.30;;;17.60;99.90;;;;;;4782231;29;20509;-80
2021/07/12 00:31:40;;;;;;;13.23;11.93;;;17.60;99.90;;;;;;4802342;29;20047;-79
2021/07/12 00:34:07;;;;;;;13.45;12.13;;;17.60;99.90;;;;;;4777990;29;20055;-80
2021/07/12 00:36:33;;;;;;;12.45;11.25;;;17.60;99.90;;;;;;4802781;29;20490;-80
2021/07/12 00:39:00;;;;;;;14.02;12.73;;;17.60;99.90;;;;;;4784260;29;20062;-80
2021/07/12 00:41:27;;;;;;;13.30;11.95;;;17.60;99.90;;;;;;4785983;29;20042;-80
2021/07/12 00:43:54;;;;;;;14.40;12.90;;;17.70;99.90;;;;;;4801872;29;20049;-80
2021/07/12 00:46:20;;;;;;;16.35;14.70;;;17.70;99.90;;;;;;4787299;29;20511;-80
2021/07/12 00:48:47;;;;;;;15.77;14.07;;;17.70;99.90;;;;;;4778013;29;20051;-80
2021/07/12 00:51:14;;;;;;;14.48;12.98;;;17.80;99.90;;;;;;4801371;29;20042;-80
2021/07/12 00:53:40;;;;;;;18.58;14.93;;;17.80;99.90;;;;;;4771958;29;20055;-79
2021/07/12 00:56:08;;;;;;;15.75;14.18;;;17.80;99.90;;;;;;4786312;29;20047;-80
2021/07/12 00:58:36;;;;;;;16.35;14.65;;;17.80;99.90;;;;;;4771251;29;20945;-80
2021/07/12 01:01:05;;;;;;;15.43;14.00;;;17.80;99.90;;;;;;4772132;29;20042;-80
2021/07/12 01:03:33;;;;;;;15.05;13.38;;;17.80;99.90;;;;;;4754339;29;20042;-80
2021/07/12 01:06:04;;;;;;;16.20;13.07;;;17.80;99.90;;;;;;4772087;29;20075;-80
2021/07/12 01:08:33;;;;;;;15.57;13.98;;;17.80;99.90;;;;;;4788764;29;20396;-80
2021/07/12 01:11:15;;;;;;;17.15;15.18;;;17.80;99.90;;;;;;4787927;29;20054;-79
2021/07/12 01:13:48;;;;;;;17.73;14.45;;;17.80;99.90;;;;;;4785069;29;20431;-80
2021/07/12 01:16:33;;;;;;;16.30;14.48;;;17.80;99.90;;;;;;4804036;29;20054;-80
2021/07/12 01:19:36;;;;;;;17.05;15.13;;;17.80;99.90;;;;;;4772260;29;20051;-80
2021/07/12 01:22:26;;;;;;;16.60;14.88;;;17.70;99.90;;;;;;4805243;29;20049;-80
2021/07/12 01:25:36;;;;;;;15.00;13.50;;;17.70;99.90;;;;;;4787777;29;20042;-80
2021/07/12 01:28:11;;;;;;;17.90;16.08;;;17.70;99.90;;;;;;4806107;29;20065;-79
2021/07/12 01:31:22;;;;;;;17.77;15.98;;;17.60;99.90;;;;;;4806652;29;20046;-80
2021/07/12 01:34:06;;;;;;;17.35;15.65;;;17.60;99.90;;;;;;4757117;29;20056;-80
2021/07/12 01:36:41;;;;;;;17.00;15.30;;;17.60;99.90;;;;;;4769267;29;20051;-80
2021/07/12 01:39:21;;;;;;;17.83;16.02;;;17.50;99.90;;;;;;4771268;29;20051;-80
2021/07/12 01:42:05;;;;;;;17.50;15.70;;;17.50;99.90;;;;;;4790804;29;20058;-80
2021/07/12 01:44:41;;;;;;;;;;;17.50;99.90;;;;;;4797715;29;20043;-80
2021/07/12 01:47:12;;;;;;;14.63;13.15;;;17.50;99.90;;;;;;4785704;29;19921;-80
2021/07/12 01:50:00;;;;;;;16.58;14.43;;;17.50;99.90;;;;;;4786293;29;20890;-80
2021/07/12 01:52:40;;;;;;;14.05;12.65;;;17.50;99.90;;;;;;4802493;29;20432;-80
2021/07/12 01:55:19;;;;;;;15.70;14.10;;;17.50;99.90;;;;;;4790193;29;20055;-75
2021/07/12 01:57:55;;;;;;;15.82;14.13;;;17.50;99.90;;;;;;4781561;29;20522;-75
2021/07/12 02:00:25;;;;;;;16.60;14.90;;;17.50;99.90;;;;;;4769172;29;20054;-75
2021/07/12 02:03:00;;;;;;;16.73;15.00;;;17.50;99.90;;;;;;4758574;29;20066;-75
2021/07/12 02:05:36;;;;;;;16.60;14.90;;;17.40;99.90;;;;;;4792281;29;20402;-75
2021/07/12 02:08:08;;;;;;;17.23;15.52;;;17.40;99.90;;;;;;4766513;29;20047;-75
2021/07/12 02:10:36;;;;;;;16.98;15.15;;;17.40;99.90;;;;;;4789562;29;20038;-75
2021/07/12 02:13:08;;;;;;;15.35;13.75;;;17.40;99.90;;;;;;4771134;29;20046;-75
2021/07/12 02:15:39;;;;;;;15.10;13.50;;;17.40;99.90;;;;;;4782584;29;20373;-74
2021/07/12 02:18:26;;;;;;;15.10;13.50;;;17.30;99.90;;;;;;4788800;29;20513;-75
2021/07/12 02:20:59;;;;;;;16.92;14.73;;;17.30;99.90;;;;;;4788881;29;20057;-75
2021/07/12 02:23:29;;;;;;;15.80;14.13;;;17.30;99.90;;;;;;4760542;29;20035;-75
2021/07/12 02:25:58;;;;;;;16.67;14.93;;;17.30;99.90;;;;;;4760619;29;20058;-75
2021/07/12 02:28:27;;;;;;;15.65;14.02;;;17.30;99.90;;;;;;4772561;29;20047;-75
2021/07/12 02:30:55;;;;;;;17.08;14.95;;;17.20;99.90;;;;;;4771468;29;20047;-80
2021/07/12 02:33:23;;;;;;;17.70;15.15;;;17.30;99.90;;;;;;4775497;29;20065;-75
2021/07/12 02:35:50;;;;;;;17.50;15.68;;;17.20;99.90;;;;;;4804975;29;20057;-75
2021/07/12 02:38:18;;;;;;;15.60;14.00;;;17.20;99.90;;;;;;4758560;29;20042;-80
2021/07/12 02:40:50;;;;;;;16.80;15.05;;;17.20;99.90;;;;;;4783250;29;20054;-80
2021/07/12 02:43:19;;;;;;;16.33;14.73;;;17.20;99.90;;;;;;4785825;29;20038;-80
2021/07/12 02:45:47;;;;;;;17.20;15.50;;;17.10;99.90;;;;;;4783598;29;20439;-80
2021/07/12 02:48:14;;;;;;;17.05;15.35;;;17.10;99.90;;;;;;4783069;29;20046;-80
2021/07/12 02:50:43;;;;;;;17.77;15.98;;;17.00;99.90;;;;;;4770175;29;20511;-80
2021/07/12 02:53:28;;;;;;;17.55;15.75;;;17.00;99.90;;;;;;4786702;29;20046;-79
2021/07/12 02:55:55;;;;;;;14.38;12.95;;;17.00;99.90;;;;;;4785037;29;20034;-80
2021/07/12 02:58:21;;;;;;;15.35;13.70;;;17.00;99.90;;;;;;4782196;29;20039;-80
2021/07/12 03:00:49;;;;;;;16.08;14.43;;;17.00;99.90;;;;;;4788342;29;20053;-80
2021/07/12 03:03:16;;;;;;;16.40;14.70;;;16.90;99.90;;;;;;4787464;29;20034;-80
2021/07/12 03:05:44;;;;;;;15.85;14.23;;;16.90;99.90;;;;;;4773126;29;20058;-79
2021/07/12 03:08:26;;;;;;;15.75;14.15;;;16.90;99.90;;;;;;4784305;29;20411;-80
2021/07/12 03:10:59;;;;;;;15.07;12.98;;;16.90;99.90;;;;;;4769683;29;20038;-80
2021/07/12 03:13:45;;;;;;;18.20;15.05;;;16.90;99.90;;;;;;4782146;29;20042;-79
2021/07/12 03:16:13;;;;;;;16.98;15.18;;;16.90;99.90;;;;;;4782103;29;20059;-79
2021/07/12 03:18:55;;;;;;;17.58;15.77;;;16.90;99.90;;;;;;4782869;29;20035;-80
2021/07/12 03:21:25;;;;;;;17.33;15.50;;;16.90;99.90;;;;;;4784949;29;20039;-79
2021/07/12 03:23:55;;;;;;;16.65;14.95;;;16.90;99.90;;;;;;4785489;29;20030;-79
2021/07/12 03:26:26;;;;;;;17.45;15.70;;;16.80;99.90;;;;;;4783147;29;20054;-80
2021/07/12 03:28:55;;;;;;;17.00;14.70;;;16.80;99.90;;;;;;4769270;29;20047;-80
2021/07/12 03:31:26;;;;;;;16.85;15.07;;;16.80;99.90;;;;;;4773757;29;20946;-80
2021/07/12 03:33:55;;;;;;;18.85;16.85;;;16.80;99.90;;;;;;4787778;29;20062;-80
2021/07/12 03:36:23;;;;;;;17.77;16.00;;;16.80;99.90;;;;;;4785641;29;20050;-80
2021/07/12 03:38:52;;;;;;;17.60;15.70;;;16.80;99.90;;;;;;4776257;29;20392;-80
2021/07/12 03:41:23;;;;;;;19.10;16.83;;;16.80;99.90;;;;;;4770714;29;20058;-80
2021/07/12 03:43:50;;;;;;;18.27;16.42;;;16.80;99.90;;;;;;4781194;29;20476;-80
2021/07/12 03:46:18;;;;;;;18.40;16.50;;;16.80;99.90;;;;;;4799352;29;20053;-80
2021/07/12 03:48:46;;;;;;;18.23;15.70;;;16.80;99.90;;;;;;4785455;29;20035;-80
2021/07/12 03:51:21;;;;;;;17.67;15.80;;;16.90;99.90;;;;;;4771767;29;20053;-79
2021/07/12 03:53:49;;;;;;;18.48;16.48;;;16.90;99.90;;;;;;4770423;29;20062;-80
2021/07/12 03:56:16;;;;;;;17.50;15.73;;;16.90;99.90;;;;;;4785629;29;20043;-79
2021/07/12 03:58:44;;;;;;;17.80;15.85;;;16.90;99.90;;;;;;4771518;29;20061;-80
2021/07/12 04:01:10;;;;;;;18.88;16.20;;;17.00;99.90;;;;;;4768783;29;20058;-79
2021/07/12 04:03:37;;;;;;;17.38;15.57;;;17.00;99.90;;;;;;4786292;29;20078;-80
2021/07/12 04:06:06;;;;;;;17.83;16.02;;;17.00;99.90;;;;;;4785588;29;20062;-80
2021/07/12 04:08:32;;;;;;;18.38;16.10;;;17.00;99.90;;;;;;4769041;29;20046;-79
2021/07/12 04:10:59;;;;;;;18.17;16.27;;;17.00;99.90;;;;;;4799091;29;20046;-80
2021/07/12 04:13:25;;;;;;;18.38;16.58;;;16.90;99.90;;;;;;4786513;29;20051;-80
2021/07/12 04:15:52;;;;;;;17.63;15.85;;;17.00;99.90;;;;;;4771264;29;20061;-80
2021/07/12 04:18:19;;;;;;;19.33;17.38;;;17.00;99.90;;;;;;4802274;29;20511;-80
2021/07/12 04:20:47;;;;;;;20.25;17.10;;;17.00;99.90;;;;;;4785644;29;20050;-80
2021/07/12 04:23:13;;;;;;;16.38;14.68;;;17.00;99.90;;;;;;4803110;29;20126;-81
2021/07/12 04:25:40;;;;;;;21.70;19.38;;;17.10;99.90;;;;;;4755796;29;20047;-81
2021/07/12 04:28:07;;;;;;;22.30;19.88;;;17.10;99.90;;;;;;4787683;29;20039;-81
2021/07/12 04:30:33;;;;;;;22.08;19.92;;;17.20;99.90;;;;;;4785440;29;20070;-81
2021/07/12 04:32:59;;;;;;;19.92;17.88;;;17.20;99.90;;;;;;4803229;29;20054;-81
2021/07/12 04:35:26;;;;;;;19.98;18.00;;;17.30;99.90;;;;;;4787000;29;20443;-82
2021/07/12 04:37:53;;;;;;;19.55;17.45;;;17.40;99.90;;;;;;4802795;29;20039;-82
2021/07/12 04:40:19;;;;;;;19.17;17.17;;;17.50;99.90;;;;;;4786123;29;20046;-81
2021/07/12 04:42:46;;;;;;;19.30;17.30;;;17.50;99.90;;;;;;4769555;29;20051;-81
2021/07/12 04:45:13;;;;;;;20.73;18.52;;;17.60;99.90;;;;;;4785876;29;20047;-81
2021/07/12 04:47:42;;;;;;;20.90;18.70;;;17.70;99.90;;;;;;4758268;29;20066;-81
2021/07/12 04:50:10;;;;;;;20.55;18.45;;;17.80;99.90;;;;;;4808930;29;20078;-82
2021/07/12 04:52:37;;;;;;;22.98;19.40;;;17.90;99.90;;;;;;4795043;29;20046;-81
2021/07/12 04:55:07;;;;;;;20.95;18.77;;;18.00;99.90;;;;;;4780124;29;20785;-81
2021/07/12 04:57:34;;;;;;;20.13;18.17;;;18.10;99.90;;;;;;4800636;29;20039;-83
2021/07/12 05:00:02;;;;;;;16.23;14.63;;;18.30;99.90;;;;;;4775957;29;20054;-82
2021/07/12 05:02:28;;;;;;;24.88;22.27;;;18.40;99.90;;;;;;4782604;29;20053;-82
2021/07/12 05:04:55;;;;;;;21.83;19.40;;;18.40;99.90;;;;;;4771602;29;20495;-82
2021/07/12 05:07:21;;;;;;;22.17;19.77;;;18.50;99.90;;;;;;4773258;29;20514;-82
2021/07/12 05:09:48;;;;;;;22.23;19.92;;;18.50;99.90;;;;;;4773172;29;20549;-82
2021/07/12 05:12:15;;;;;;;19.80;17.90;;;18.60;99.90;;;;;;4787818;29;20046;-82
2021/07/12 05:14:42;;;;;;;20.60;18.40;;;18.70;99.90;;;;;;4771684;29;20050;-81
2021/07/12 05:17:13;;;;;;;21.67;19.50;;;18.70;99.90;;;;;;4806302;29;20034;-76
2021/07/12 05:19:40;;;;;;;21.48;19.27;;;18.80;99.90;;;;;;4740230;29;20050;-76
2021/07/12 05:22:07;;;;;;;21.10;19.02;;;18.90;99.90;;;;;;4770796;29;20492;-83
2021/07/12 05:24:34;;;;;;;20.67;18.65;;;19.00;99.90;;;;;;4782870;29;20058;-77
2021/07/12 05:27:01;;;;;;;21.73;19.52;;;19.10;99.90;;;;;;4767349;29;20061;-76
2021/07/12 05:29:27;;;;;;;20.50;18.33;;;19.20;99.90;;;;;;4783798;29;20384;-76
2021/07/12 05:31:53;;;;;;;18.27;16.42;;;19.30;99.90;;;;;;4783607;29;20538;-82
2021/07/12 05:34:20;;;;;;;19.02;17.02;;;19.40;99.90;;;;;;4800730;29;20069;-76
2021/07/12 05:36:47;;;;;;;21.35;19.10;;;19.50;99.90;;;;;;4773704;29;20047;-80
2021/07/12 05:39:15;;;;;;;20.52;18.42;;;19.60;99.90;;;;;;4766554;29;20062;-86
2021/07/12 05:41:41;;;;;;;21.23;19.08;;;19.70;99.90;;;;;;4769172;29;20051;-85
2021/07/12 05:44:10;;;;;;;20.35;18.15;;;19.70;99.90;;;;;;4769992;29;20077;-76
2021/07/12 05:46:37;;;;;;;20.65;18.52;;;19.80;99.90;;;;;;4780501;29;20069;-75
2021/07/12 05:49:03;;;;;;;20.42;18.40;;;19.90;99.90;;;;;;4784908;29;20047;-76
2021/07/12 05:51:30;;;;;;;20.83;18.73;;;19.90;99.90;;;;;;4753778;29;20058;-76
2021/07/12 05:53:56;;;;;;;20.00;17.45;;;20.00;99.90;;;;;;4755527;29;20050;-77
2021/07/12 05:56:22;;;;;;;19.83;17.90;;;20.10;99.90;;;;;;4753807;29;20063;-76
2021/07/12 05:58:49;;;;;;;21.40;19.30;;;20.20;99.90;;;;;;4781664;29;20042;-76
2021/07/12 06:01:16;;;;;;;21.42;19.13;;;20.30;99.90;;;;;;4780571;29;20054;-76
2021/07/12 06:03:43;;;;;;;18.20;16.40;;;20.30;99.90;;;;;;4780729;29;20503;-78
2021/07/12 06:06:09;;;;;;;19.02;17.10;;;20.40;99.90;;;;;;4765618;29;20039;-76
2021/07/12 06:08:36;;;;;;;22.95;20.55;;;20.50;99.90;;;;;;4781342;29;20047;-75
2021/07/12 06:11:04;;;;;;;19.90;18.00;;;20.60;99.90;;;;;;4781078;29;20039;-76
2021/07/12 06:13:30;;;;;;;20.25;18.27;;;20.80;99.90;;;;;;4782377;29;20069;-76
2021/07/12 06:15:57;;;;;;;25.83;23.25;;;20.90;99.90;;;;;;4766994;29;20047;-76
2021/07/12 06:18:23;;;;;;;20.48;18.15;;;21.00;99.90;;;;;;4797760;29;20043;-76
2021/07/12 06:20:49;;;;;;;16.77;15.10;;;21.10;99.90;;;;;;4767212;29;20530;-76
2021/07/12 06:23:16;;;;;;;14.82;13.40;;;21.30;99.90;;;;;;4799476;29;20496;-76
2021/07/12 06:25:42;;;;;;;16.52;15.05;;;21.50;99.90;;;;;;4766711;29;20035;-76
2021/07/12 06:28:09;;;;;;;18.13;16.38;;;21.80;99.90;;;;;;4781673;29;20053;-76
2021/07/12 06:30:36;;;;;;;16.15;14.52;;;22.00;99.90;;;;;;4782717;29;20043;-76
2021/07/12 06:33:03;;;;;;;18.05;16.33;;;22.20;99.90;;;;;;4782107;29;20415;-76
2021/07/12 06:35:29;;;;;;;14.82;13.43;;;22.30;99.70;;;;;;4780727;29;20529;-77
2021/07/12 06:37:56;;;;;;;18.27;16.35;;;22.30;99.30;;;;;;4767694;29;20068;-77
2021/07/12 06:40:22;;;;;;;18.40;16.60;;;22.30;98.90;;;;;;4801754;29;20058;-77
2021/07/12 06:42:49;;;;;;;17.48;15.88;;;22.30;98.80;;;;;;4752436;29;20051;-78
2021/07/12 06:45:18;;;;;;;14.50;13.13;;;22.30;98.80;;;;;;4739291;29;20051;-77
2021/07/12 06:47:47;;;;;;;18.00;16.20;;;22.40;98.70;;;;;;4758423;29;20057;-77
2021/07/12 06:50:16;;;;;;;18.80;17.00;;;22.40;98.40;;;;;;4751456;29;20066;-78
2021/07/12 06:52:42;;;;;;;17.55;15.82;;;22.60;98.30;;;;;;4801526;29;20043;-77
2021/07/12 06:55:09;;;;;;;16.95;15.40;;;22.70;98.10;;;;;;4782460;29;20069;-78
2021/07/12 06:57:35;;;;;;;15.77;14.23;;;22.90;97.70;;;;;;4751765;29;20053;-78
2021/07/12 07:00:04;;;;;;;17.85;16.05;;;23.00;97.50;;;;;;4796238;29;20042;-78
2021/07/12 07:02:31;;;;;;;14.23;12.77;;;23.10;97.60;;;;;;4768956;29;20058;-77
2021/07/12 07:05:07;;;;;;;18.85;16.85;;;23.40;97.10;;;;;;4765990;29;20372;-77
2021/07/12 07:07:35;;;;;;;16.60;15.00;;;23.60;96.10;;;;;;4781487;29;20055;-77
2021/07/12 07:10:06;;;;;;;16.85;15.32;;;23.60;95.60;;;;;;4780279;29;20042;-77
2021/07/12 07:12:35;;;;;;;16.98;15.27;;;23.50;95.80;;;;;;4770768;29;20047;-79
2021/07/12 07:15:03;;;;;;;15.18;13.77;;;23.40;96.00;;;;;;4764930;29;20054;-77
2021/07/12 07:17:29;;;;;;;16.27;14.68;;;23.30;96.20;;;;;;4763781;29;20496;-76
2021/07/12 07:19:56;;;;;;;14.02;12.80;;;23.20;96.20;;;;;;4765625;29;20051;-77
2021/07/12 07:22:22;;;;;;;15.68;14.27;;;23.10;96.20;;;;;;4800782;29;20049;-77
2021/07/12 07:24:51;;;;;;;14.70;13.30;;;23.10;95.80;;;;;;4796050;29;20045;-77
2021/07/12 07:27:18;;;;;;;13.02;11.68;;;23.20;95.90;;;;;;4761704;29;20047;-77
2021/07/12 07:29:45;;;;;;;13.43;12.18;;;23.30;95.90;;;;;;4796478;29;20111;-77
2021/07/12 07:32:12;;;;;;;12.77;11.55;;;23.50;95.40;;;;;;4766201;29;20478;-77
2021/07/12 07:34:39;;;;;;;13.77;12.45;;;23.60;95.30;;;;;;4797156;29;20058;-77
2021/07/12 07:37:06;;;;;;;11.55;10.55;;;23.80;95.40;;;;;;4765361;29;20050;-77
2021/07/12 07:39:33;;;;;;;12.88;11.68;;;24.00;94.90;;;;;;4779759;29;20585;-77
2021/07/12 07:41:59;;;;;;;14.70;13.43;;;24.30;94.50;;;;;;4766444;29;20059;-77
2021/07/12 07:44:26;;;;;;;12.20;10.70;;;24.50;94.20;;;;;;4782606;29;20376;-77
2021/07/12 07:46:53;;;;;;;11.65;10.65;;;24.70;93.80;;;;;;4751485;29;20055;-77
2021/07/12 07:49:19;;;;;;;14.73;13.32;;;24.80;93.80;;;;;;4778752;29;20047;-77
2021/07/12 07:51:46;;;;;;;9.85;8.88;;;24.90;93.30;;;;;;4766548;29;20058;-77
2021/07/12 07:54:12;;;;;;;15.70;13.93;;;24.90;93.10;;;;;;4780959;29;20030;-77
2021/07/12 07:56:39;;;;;;;15.48;14.05;;;25.00;92.70;;;;;;4797647;29;20043;-78
2021/07/12 07:59:08;;;;;;;16.35;14.75;;;25.00;92.50;;;;;;4751240;29;20078;-77
2021/07/12 08:01:35;;;;;;;13.27;12.02;;;25.10;92.00;;;;;;4779809;29;20391;-77
2021/07/12 08:04:01;;;;;;;12.55;11.45;;;25.10;92.10;;;;;;4783152;29;20495;-77
2021/07/12 08:06:28;;;;;;;16.52;14.93;;;25.20;92.20;;;;;;4782720;29;20053;-77
2021/07/12 08:08:55;;;;;;;10.35;9.38;;;25.30;91.60;;;;;;4796381;29;20050;-77
2021/07/12 08:11:21;;;;;;;17.33;15.68;;;25.40;91.50;;;;;;4766480;29;20050;-77
2021/07/12 08:13:48;;;;;;;15.13;13.63;;;25.40;90.90;;;;;;4797656;29;20054;-77
2021/07/12 08:16:14;;;;;;;13.95;12.55;;;25.50;90.90;;;;;;4780736;29;20050;-77
2021/07/12 08:18:41;;;;;;;15.13;13.38;;;25.60;90.90;;;;;;4749509;29;20521;-77
2021/07/12 08:21:10;;;;;;;16.95;15.55;;;25.70;90.90;;;;;;4796402;29;20053;-76
2021/07/12 08:23:41;;;;;;;12.50;11.30;;;25.90;90.50;;;;;;4766920;29;20059;-77
2021/07/12 08:26:09;;;;;;;11.02;10.10;;;25.90;90.20;;;;;;4804949;29;20042;-79
2021/07/12 08:28:36;;;;;;;15.10;13.80;;;26.10;90.10;;;;;;4766141;29;20057;-78
2021/07/12 08:31:03;;;;;;;15.60;14.20;;;26.10;89.80;;;;;;4763459;29;20069;-78
2021/07/12 08:33:30;;;;;;;11.32;10.32;;;26.10;89.30;;;;;;4768639;29;20062;-78
2021/07/12 08:35:56;;;;;;;9.77;8.98;;;26.20;88.80;;;;;;4809537;29;20043;-78
2021/07/12 08:38:23;;;;;;;12.23;11.15;;;26.30;89.10;;;;;;4782705;29;20054;-77
2021/07/12 08:40:53;;;;;;;12.85;11.68;;;26.50;88.60;;;;;;4786375;29;20055;-78
2021/07/12 08:43:19;;;;;;;13.45;12.18;;;26.70;88.30;;;;;;4782257;29;20044;-77
2021/07/12 08:45:46;;;;;;;13.00;11.85;;;26.80;87.40;;;;;;4770114;29;20057;-78
2021/07/12 08:48:14;;;;;;;10.48;9.57;;;26.90;87.00;;;;;;4768617;29;20038;-78
2021/07/12 08:50:45;;;;;;;12.63;11.50;;;27.00;86.70;;;;;;4769643;29;20042;-77
2021/07/12 08:53:14;;;;;;;11.77;10.75;;;27.20;85.00;;;;;;4804024;29;20043;-77
2021/07/12 08:55:45;;;;;;;8.57;7.78;;;27.20;84.80;;;;;;4799904;29;20384;-78
2021/07/12 08:58:24;;;;;;;10.77;9.77;;;27.20;85.10;;;;;;4759087;29;20059;-77
2021/07/12 09:00:53;;;;;;;11.80;10.80;;;27.30;84.50;;;;;;4796934;29;20039;-78
2021/07/12 09:03:23;;;;;;;10.32;9.32;;;27.40;84.10;;;;;;4805201;29;20039;-78
2021/07/12 09:06:15;;;;;;;13.20;11.90;;;27.50;83.20;;;;;;4781874;29;20043;-78
2021/07/12 09:08:46;;;;;;;10.70;9.68;;;27.70;82.30;;;;;;4788470;29;20068;-77
2021/07/12 09:11:19;;;;;;;;;;;27.80;82.30;;;;;;4783162;29;20046;-78
2021/07/12 09:13:51;;;;;;;9.90;9.00;;;28.00;82.10;;;;;;4770654;29;19924;-79
2021/07/12 09:16:49;;;;;;;7.88;7.18;;;28.10;81.80;;;;;;4782764;29;20054;-78
2021/07/12 09:19:15;;;;;;;10.68;9.68;;;28.30;80.50;;;;;;4782540;29;20054;-78
2021/07/12 09:21:49;;;;;;;9.68;8.88;;;28.30;78.90;;;;;;4783155;29;20787;-78
2021/07/12 09:24:29;;;;;;;11.68;10.55;;;28.30;77.40;;;;;;4780609;29;20399;-78
2021/07/12 09:27:26;;;;;;;10.73;9.63;;;28.30;77.50;;;;;;4782639;29;20039;-78
2021/07/12 09:30:01;;;;;;;7.85;7.10;;;28.20;75.90;;;;;;4764742;29;20050;-78
2021/07/12 09:32:34;;;;;;;8.38;7.55;;;28.10;77.00;;;;;;4799065;29;20046;-78
2021/07/12 09:35:07;;;;;;;10.68;9.57;;;28.10;77.30;;;;;;4765062;29;20428;-78
2021/07/12 09:37:40;;;;;;;11.45;10.43;;;28.10;76.60;;;;;;4764938;30;20535;-78
2021/07/12 09:40:14;;;;;;;7.95;7.18;;;28.10;75.50;;;;;;4749579;29;20051;-78
2021/07/12 09:42:49;;;;;;;9.45;8.65;;;28.20;75.30;;;;;;4749737;29;20054;-78
2021/07/12 09:45:21;;;;;;;8.25;7.38;;;28.30;75.80;;;;;;4780979;29;20503;-78
2021/07/12 09:47:49;;;;;;;9.30;8.50;;;28.50;74.90;;;;;;4765488;29;20035;-78
2021/07/12 09:50:22;;;;;;;8.93;8.13;;;28.50;74.10;;;;;;4764158;30;20047;-81
2021/07/12 09:52:59;;;;;;;10.63;7.50;;;28.50;75.00;;;;;;4780054;29;20047;-82
2021/07/12 09:55:26;;;;;;;8.85;7.90;;;28.50;73.90;;;;;;4766229;30;20051;-81
2021/07/12 09:58:12;;;;;;;10.02;9.05;;;28.60;74.20;;;;;;4771050;29;20055;-81
2021/07/12 10:01:04;;;;;;;7.57;6.85;;;28.80;74.00;;;;;;4764826;29;20039;-81
2021/07/12 10:03:33;;;;;;;6.18;5.57;;;29.10;73.10;;;;;;4780023;29;20459;-81
2021/07/12 10:06:01;;;;;;;4.82;4.32;;;29.30;73.20;;;;;;4778558;29;20051;-81
2021/07/12 10:08:27;;;;;;;8.00;7.20;;;29.40;71.70;;;;;;4769725;29;20062;-81
2021/07/12 10:10:55;;;;;;;8.15;7.28;;;29.20;70.60;;;;;;4763500;29;20530;-81
2021/07/12 10:13:21;;;;;;;5.63;5.13;;;28.90;70.70;;;;;;4764896;29;20043;-82
2021/07/12 10:15:49;;;;;;;8.85;7.95;;;28.80;71.60;;;;;;4752354;29;20067;-82
2021/07/12 10:18:17;;;;;;;6.72;6.13;;;28.90;69.60;;;;;;4779403;29;20040;-81
2021/07/12 10:20:44;;;;;;;8.05;6.85;;;29.00;69.00;;;;;;4762839;29;20079;-81
2021/07/12 10:23:12;;;;;;;7.15;4.90;;;28.90;69.00;;;;;;4780451;29;20040;-82
2021/07/12 10:25:52;;;;;;;6.05;4.90;;;28.80;69.20;;;;;;4749880;30;20158;-84
2021/07/12 10:28:40;;;;;;;5.57;5.05;;;29.00;69.40;;;;;;4750149;29;20054;-85
2021/07/12 10:31:21;;;;;;;10.20;7.60;;;29.30;69.20;;;;;;4723056;29;20086;-85
2021/07/12 10:33:47;;;;;;;5.55;5.05;;;29.60;67.10;;;;;;4769767;29;20059;-83
2021/07/12 10:36:36;;;;;;;5.03;4.60;;;29.80;66.80;;;;;;4798862;29;20043;-80
2021/07/12 10:39:03;;;;;;;4.65;2.97;;;29.90;65.90;;;;;;4777129;29;20050;-82
2021/07/12 10:41:30;;;;;;;5.25;4.78;;;30.10;64.60;;;;;;4797986;29;20046;-80
2021/07/12 10:43:58;;;;;;;6.05;4.72;;;30.30;65.40;;;;;;4768817;29;20088;-82
2021/07/12 10:46:25;;;;;;;5.78;5.25;;;30.50;65.10;;;;;;4800498;29;20050;-81
2021/07/12 10:48:52;;;;;;;5.25;4.70;;;30.70;64.40;;;;;;4793028;29;20042;-81
2021/07/12 10:51:24;;;;;;;4.55;3.78;;;31.00;64.30;;;;;;4765070;29;20046;-84
2021/07/12 10:54:12;;;;;;;5.45;4.95;;;31.20;63.40;;;;;;4800290;29;20039;-83
2021/07/12 10:56:57;;;;;;;5.93;5.30;;;31.20;62.20;;;;;;4799310;29;20046;-84
2021/07/12 10:59:33;;;;;;;12.88;10.05;;;31.00;61.80;;;;;;4802071;29;20034;-82
2021/07/12 11:02:02;;;;;;;5.18;4.53;;;30.80;61.00;;;;;;4780698;29;20514;-78
2021/07/12 11:04:36;;;;;;;6.60;5.97;;;30.70;62.00;;;;;;4777540;29;20053;-78
2021/07/12 11:07:06;;;;;;;5.03;4.53;;;30.80;61.10;;;;;;4765071;29;20551;-77
2021/07/12 11:09:42;;;;;;;4.45;4.07;;;30.90;61.20;;;;;;4764714;29;20043;-77
2021/07/12 11:12:38;;;;;;;5.22;4.72;;;30.80;61.20;;;;;;4752556;29;20071;-76
2021/07/12 11:15:12;;;;;;;6.47;5.50;;;30.60;60.60;;;;;;4800198;29;20050;-77
2021/07/12 11:17:49;;;;;;;6.80;5.43;;;30.40;60.40;;;;;;4783785;29;20038;-77
2021/07/12 11:20:15;;;;;;;5.55;4.90;;;30.20;60.90;;;;;;4762826;29;20066;-78
2021/07/12 11:22:54;;;;;;;5.25;4.75;;;29.90;61.30;;;;;;4780381;29;20047;-77
2021/07/12 11:25:40;;;;;;;6.43;5.13;;;29.70;61.70;;;;;;4800030;29;20038;-77
2021/07/12 11:28:13;;;;;;;5.47;4.93;;;29.50;61.30;;;;;;4784160;29;20054;-77
2021/07/12 11:30:40;;;;;;;4.57;4.10;;;29.50;61.70;;;;;;4782302;29;20522;-78
2021/07/12 11:33:07;;;;;;;4.72;4.32;;;29.70;62.00;;;;;;4751198;29;20050;-78
2021/07/12 11:35:34;;;;;;;4.10;3.70;;;30.00;61.30;;;;;;4782263;29;20034;-78
2021/07/12 11:38:03;;;;;;;4.53;4.13;;;30.20;60.40;;;;;;4785630;29;20046;-78
2021/07/12 11:40:30;;;;;;;4.60;4.20;;;30.20;60.10;;;;;;4799004;29;20036;-79
2021/07/12 11:42:57;;;;;;;4.57;4.18;;;30.20;60.10;;;;;;4754347;29;20051;-76
2021/07/12 11:45:24;;;;;;;4.57;4.03;;;30.10;60.20;;;;;;4756374;29;20051;-76
2021/07/12 11:47:55;;;;;;;4.07;3.75;;;30.00;60.10;;;;;;4771940;29;20059;-78
2021/07/12 11:50:31;;;;;;;4.53;4.13;;;29.80;60.00;;;;;;4789597;29;20058;-79
2021/07/12 11:53:09;;;;;;;5.15;4.75;;;29.70;60.10;;;;;;4787795;29;20418;-78
2021/07/12 11:55:37;;;;;;;4.00;2.97;;;29.50;60.00;;;;;;4807275;29;20598;-76
2021/07/12 11:58:05;;;;;;;4.20;3.80;;;29.40;60.80;;;;;;4789289;29;20232;-78
2021/07/12 12:00:40;;;;;;;3.20;2.90;;;29.40;61.20;;;;;;4792450;29;20050;-77
2021/07/12 12:03:09;;;;;;;5.95;2.88;;;29.40;61.00;;;;;;4792039;29;20058;-76
2021/07/12 12:05:37;;;;;;;3.50;3.13;;;29.40;60.90;;;;;;4812233;29;20106;-76
2021/07/12 12:08:05;;;;;;;3.42;3.03;;;29.50;61.60;;;;;;4792091;29;20053;-77
2021/07/12 12:10:37;;;;;;;4.05;3.45;;;29.60;61.30;;;;;;4791724;29;20042;-77
2021/07/12 12:13:14;;;;;;;3.92;3.53;;;29.70;61.20;;;;;;4778000;29;20396;-76
2021/07/12 12:15:45;;;;;;;3.63;3.33;;;29.80;61.60;;;;;;4802676;29;20050;-76
2021/07/12 12:18:13;;;;;;;;;;;29.80;61.90;;;;;;4772089;29;20055;-76
2021/07/12 12:20:45;;;;;;;4.78;3.92;;;29.80;61.30;;;;;;4782545;29;20285;-76
2021/07/12 12:23:26;;;;;;;4.63;4.22;;;29.80;61.00;;;;;;4794513;29;20082;-76
2021/07/12 12:26:13;;;;;;;4.40;4.00;;;29.70;61.10;;;;;;4767754;29;20058;-77
2021/07/12 12:28:57;;;;;;;4.25;2.90;;;29.50;60.00;;;;;;4783665;29;20042;-77
2021/07/12 12:31:27;;;;;;;4.35;3.30;;;29.20;60.60;;;;;;4786152;29;20050;-77
2021/07/12 12:33:57;;;;;;;4.95;3.45;;;29.10;61.30;;;;;;4768977;29;20051;-76
2021/07/12 12:36:28;;;;;;;3.78;3.45;;;29.00;61.60;;;;;;4776828;29;20507;-76
2021/07/12 12:39:10;;;;;;;6.22;4.38;;;28.90;61.90;;;;;;4767219;29;20050;-77
2021/07/12 12:41:51;;;;;;;4.00;3.47;;;28.80;62.00;;;;;;4801676;29;20518;-75
2021/07/12 12:44:21;;;;;;;3.78;3.47;;;28.70;62.60;;;;;;4780017;29;20050;-76
2021/07/12 12:46:56;;;;;;;4.68;4.28;;;28.80;63.00;;;;;;4771793;29;20515;-75
2021/07/12 12:49:41;;;;;;;4.53;4.07;;;28.80;63.30;;;;;;4802257;29;20616;-75
2021/07/12 12:52:15;;;;;;;4.45;4.05;;;28.90;63.70;;;;;;4759317;29;20058;-75